Time,TemperatureF,DewpointF,PressureIn,WindDirection,WindDirectionDegrees,WindSpeedMPH,WindSpeedGustMPH,Humidity,HourlyPrecipIn,Conditions,Clouds,dailyrainin,SoftwareType,DateUTC
2013-03-27 00:01:00,32.9,29.0,30.10,NW,323,10.0,14.0,85,0.00,,,0.00,weatherlink.com 1.10,2013-03-27 04:01:00,
2013-03-27 00:31:00,32.6,29.0,30.10,WNW,301,7.0,11.0,87,0.00,,,0.00,weatherlink.com 1.10,2013-03-27 04:31:00,
2013-03-27 00:46:00,32.6,29.0,30.10,NW,317,6.0,11.0,87,0.00,,,0.00,weatherlink.com 1.10,2013-03-27 04:46:00,
2013-03-27 01:16:00,32.4,29.0,30.10,WNW,282,5.0,9.0,88,0.00,,,0.00,weatherlink.com 1.10,2013-03-27 05:16:00,
2013-03-27 01:46:00,32.3,29.0,30.10,NW,321,6.0,9.0,88,0.00,,,0.00,weatherlink.com 1.10,2013-03-27 05:46:00,
2013-03-27 02:01:00,32.5,29.0,30.09,WNW,300,6.0,9.0,88,0.00,,,0.00,weatherlink.com 1.10,2013-03-27 06:01:00,
2013-03-27 02:46:00,32.1,29.0,30.09,NW,314,5.0,8.0,88,0.00,,,0.00,weatherlink.com 1.10,2013-03-27 06:46:00,
2013-03-27 03:01:00,32.1,29.0,30.09,NNW,329,3.0,7.0,88,0.00,,,0.00,weatherlink.com 1.10,2013-03-27 07:01:00,
2013-03-27 03:17:00,32.0,29.0,30.09,NW,321,5.0,8.0,89,0.00,,,0.00,weatherlink.com 1.10,2013-03-27 07:17:00,
2013-03-27 03:32:00,32.1,29.0,30.09,NW,315,6.0,11.0,89,0.00,,,0.00,weatherlink.com 1.10,2013-03-27 07:32:00,
2013-03-27 03:47:00,32.1,30.0,30.09,NW,324,7.0,11.0,90,0.00,,,0.00,weatherlink.com 1.10,2013-03-27 07:47:00,
2013-03-27 04:02:00,32.0,29.0,30.08,NNW,335,10.0,10.0,90,0.00,,,0.00,weatherlink.com 1.10,2013-03-27 08:02:00,
2013-03-27 04:17:00,32.0,30.0,30.08,NNW,338,9.0,11.0,91,0.00,,,0.00,weatherlink.com 1.10,2013-03-27 08:17:00,
2013-03-27 04:32:00,31.9,29.0,30.08,NNW,343,8.0,10.0,90,0.00,,,0.00,weatherlink.com 1.10,2013-03-27 08:32:00,
2013-03-27 04:47:00,31.8,30.0,30.08,NW,322,7.0,10.0,91,0.00,,,0.00,weatherlink.com 1.10,2013-03-27 08:47:00,
2013-03-27 05:02:00,31.8,30.0,30.08,NNW,328,6.0,7.0,91,0.00,,,0.00,weatherlink.com 1.10,2013-03-27 09:02:00,
2013-03-27 05:17:00,32.3,30.0,30.09,NW,317,2.0,9.0,91,0.00,,,0.00,weatherlink.com 1.10,2013-03-27 09:17:00,
2013-03-27 05:32:00,31.7,29.0,30.08,NNW,335,6.0,8.0,91,0.00,,,0.00,weatherlink.com 1.10,2013-03-27 09:32:00,
2013-03-27 05:47:00,32.1,30.0,30.09,NNW,342,2.0,8.0,92,0.00,,,0.00,weatherlink.com 1.10,2013-03-27 09:47:00,
2013-03-27 06:02:00,32.0,30.0,30.09,North,355,4.0,9.0,92,0.00,,,0.00,weatherlink.com 1.10,2013-03-27 10:02:00,
2013-03-27 06:17:00,31.8,30.0,30.09,NNW,348,4.0,10.0,91,0.00,,,0.00,weatherlink.com 1.10,2013-03-27 10:17:00,
2013-03-27 06:32:00,31.9,30.0,30.09,NNW,345,6.0,15.0,92,0.00,,,0.00,weatherlink.com 1.10,2013-03-27 10:32:00,
2013-03-27 06:47:00,32.0,30.0,30.10,NW,317,5.0,10.0,92,0.00,,,0.00,weatherlink.com 1.10,2013-03-27 10:47:00,
2013-03-27 07:02:00,32.0,30.0,30.11,NNW,329,3.0,6.0,92,0.00,,,0.00,weatherlink.com 1.10,2013-03-27 11:02:00,
2013-03-27 07:17:00,31.9,30.0,30.11,WNW,302,5.0,11.0,92,0.00,,,0.00,weatherlink.com 1.10,2013-03-27 11:17:00,
2013-03-27 07:32:00,32.1,30.0,30.11,NW,319,6.0,13.0,92,0.00,,,0.00,weatherlink.com 1.10,2013-03-27 11:32:00,
2013-03-27 07:47:00,32.2,30.0,30.11,NNW,348,10.0,13.0,92,0.00,,,0.00,weatherlink.com 1.10,2013-03-27 11:47:00,
2013-03-27 08:02:00,32.2,30.0,30.11,NNW,335,10.0,14.0,91,0.00,,,0.00,weatherlink.com 1.10,2013-03-27 12:02:00,
2013-03-27 08:17:00,32.3,30.0,30.12,NNW,337,6.0,13.0,91,0.00,,,0.00,weatherlink.com 1.10,2013-03-27 12:17:00,
2013-03-27 08:32:00,32.6,30.0,30.12,NNW,331,9.0,13.0,90,0.00,,,0.00,weatherlink.com 1.10,2013-03-27 12:32:00,
2013-03-27 08:47:00,32.6,30.0,30.13,NNW,338,10.0,12.0,90,0.00,,,0.00,weatherlink.com 1.10,2013-03-27 12:47:00,
2013-03-27 09:02:00,32.9,30.0,30.13,NNW,345,7.0,10.0,90,0.00,,,0.00,weatherlink.com 1.10,2013-03-27 13:02:00,
2013-03-27 09:17:00,33.2,31.0,30.14,NNW,338,6.0,11.0,90,0.00,,,0.00,weatherlink.com 1.10,2013-03-27 13:17:00,
2013-03-27 09:32:00,33.4,31.0,30.14,NNW,330,7.0,12.0,90,0.00,,,0.00,weatherlink.com 1.10,2013-03-27 13:32:00,
2013-03-27 09:47:00,33.4,31.0,30.14,NNW,338,9.0,11.0,89,0.00,,,0.00,weatherlink.com 1.10,2013-03-27 13:47:00,
2013-03-27 10:02:00,33.3,30.0,30.13,NNW,336,9.0,13.0,89,0.00,,,0.00,weatherlink.com 1.10,2013-03-27 14:02:00,
2013-03-27 10:17:00,33.4,31.0,30.14,NNW,338,8.0,14.0,89,0.00,,,0.00,weatherlink.com 1.10,2013-03-27 14:17:00,
2013-03-27 10:32:00,33.6,31.0,30.14,NW,320,10.0,13.0,89,0.00,,,0.00,weatherlink.com 1.10,2013-03-27 14:32:00,
2013-03-27 10:47:00,33.7,30.0,30.14,NW,324,9.0,16.0,86,0.00,,,0.00,weatherlink.com 1.10,2013-03-27 14:47:00,
2013-03-27 11:02:00,33.7,30.0,30.14,NNW,337,9.0,15.0,86,0.00,,,0.00,weatherlink.com 1.10,2013-03-27 15:02:00,
2013-03-27 11:17:00,34.2,30.0,30.14,NNW,329,12.0,15.0,85,0.00,,,0.00,weatherlink.com 1.10,2013-03-27 15:17:00,
2013-03-27 11:32:00,34.2,30.0,30.14,NNW,341,13.0,17.0,85,0.00,,,0.00,weatherlink.com 1.10,2013-03-27 15:32:00,
2013-03-27 11:47:00,34.1,30.0,30.14,NNW,334,11.0,15.0,85,0.00,,,0.00,weatherlink.com 1.10,2013-03-27 15:47:00,
2013-03-27 12:02:00,34.4,30.0,30.15,NNW,342,10.0,15.0,85,0.00,,,0.00,weatherlink.com 1.10,2013-03-27 16:02:00,
2013-03-27 12:17:00,34.5,31.0,30.15,North,349,8.0,14.0,85,0.00,,,0.00,weatherlink.com 1.10,2013-03-27 16:17:00,
2013-03-27 12:32:00,34.6,31.0,30.15,NW,325,4.0,14.0,85,0.00,,,0.00,weatherlink.com 1.10,2013-03-27 16:32:00,
2013-03-27 12:47:00,34.6,31.0,30.15,NNW,329,8.0,15.0,86,0.00,,,0.00,weatherlink.com 1.10,2013-03-27 16:47:00,
2013-03-27 13:02:00,35.0,31.0,30.15,NW,318,9.0,13.0,85,0.00,,,0.00,weatherlink.com 1.10,2013-03-27 17:02:00,
2013-03-27 13:17:00,35.1,31.0,30.15,NW,323,11.0,13.0,84,0.00,,,0.00,weatherlink.com 1.10,2013-03-27 17:17:00,
2013-03-27 13:32:00,35.5,31.0,30.15,NW,308,5.0,14.0,84,0.00,,,0.00,weatherlink.com 1.10,2013-03-27 17:32:00,
2013-03-27 13:47:00,35.9,31.0,30.15,NNW,330,8.0,13.0,82,0.00,,,0.00,weatherlink.com 1.10,2013-03-27 17:47:00,
2013-03-27 14:02:00,36.0,30.0,30.14,NW,306,8.0,16.0,80,0.00,,,0.00,weatherlink.com 1.10,2013-03-27 18:02:00,
2013-03-27 14:17:00,36.5,30.0,30.15,WNW,302,9.0,16.0,78,0.00,,,0.00,weatherlink.com 1.10,2013-03-27 18:17:00,
2013-03-27 14:33:00,37.3,30.0,30.15,WNW,298,8.0,13.0,76,0.00,,,0.00,weatherlink.com 1.10,2013-03-27 18:33:00,
2013-03-27 14:48:00,37.7,30.0,30.14,WNW,302,7.0,14.0,75,0.00,,,0.00,weatherlink.com 1.10,2013-03-27 18:48:00,
2013-03-27 15:03:00,38.2,31.0,30.14,NNW,327,11.0,13.0,75,0.00,,,0.00,weatherlink.com 1.10,2013-03-27 19:03:00,
2013-03-27 15:18:00,38.1,31.0,30.14,NW,304,11.0,15.0,74,0.00,,,0.00,weatherlink.com 1.10,2013-03-27 19:18:00,
2013-03-27 15:33:00,38.0,31.0,30.14,NW,309,9.0,18.0,75,0.00,,,0.00,weatherlink.com 1.10,2013-03-27 19:33:00,
2013-03-27 15:48:00,38.6,31.0,30.14,WNW,301,7.0,13.0,74,0.00,,,0.00,weatherlink.com 1.10,2013-03-27 19:48:00,
2013-03-27 16:03:00,37.5,31.0,30.14,WNW,303,8.0,15.0,77,0.00,,,0.00,weatherlink.com 1.10,2013-03-27 20:03:00,
2013-03-27 16:18:00,38.0,31.0,30.14,NW,314,8.0,12.0,77,0.00,,,0.00,weatherlink.com 1.10,2013-03-27 20:18:00,
2013-03-27 16:33:00,37.7,31.0,30.14,WNW,302,7.0,12.0,78,0.00,,,0.00,weatherlink.com 1.10,2013-03-27 20:33:00,
2013-03-27 16:48:00,38.0,31.0,30.14,NW,315,13.0,15.0,77,0.00,,,0.00,weatherlink.com 1.10,2013-03-27 20:48:00,
2013-03-27 17:03:00,38.5,32.0,30.14,NW,325,8.0,14.0,76,0.00,,,0.00,weatherlink.com 1.10,2013-03-27 21:03:00,
2013-03-27 17:18:00,39.0,32.0,30.14,NNW,333,10.0,13.0,75,0.00,,,0.00,weatherlink.com 1.10,2013-03-27 21:18:00,
2013-03-27 17:33:00,38.8,32.0,30.14,NNW,328,7.0,13.0,76,0.00,,,0.00,weatherlink.com 1.10,2013-03-27 21:33:00,
2013-03-27 17:48:00,38.8,32.0,30.14,NW,312,10.0,14.0,76,0.00,,,0.00,weatherlink.com 1.10,2013-03-27 21:48:00,
2013-03-27 18:03:00,38.1,32.0,30.15,NNW,339,10.0,14.0,78,0.00,,,0.00,weatherlink.com 1.10,2013-03-27 22:03:00,
2013-03-27 18:18:00,37.8,32.0,30.15,NW,325,10.0,15.0,79,0.00,,,0.00,weatherlink.com 1.10,2013-03-27 22:18:00,
2013-03-27 18:33:00,37.8,32.0,30.15,NW,322,8.0,12.0,79,0.00,,,0.00,weatherlink.com 1.10,2013-03-27 22:33:00,
2013-03-27 18:48:00,37.9,32.0,30.15,NW,323,6.0,12.0,78,0.00,,,0.00,weatherlink.com 1.10,2013-03-27 22:48:00,
2013-03-27 19:03:00,37.9,32.0,30.16,NW,310,8.0,13.0,78,0.00,,,0.00,weatherlink.com 1.10,2013-03-27 23:03:00,
2013-03-27 19:18:00,37.5,31.0,30.16,NNW,340,8.0,13.0,78,0.00,,,0.00,weatherlink.com 1.10,2013-03-27 23:18:00,
2013-03-27 19:33:00,37.0,31.0,30.16,NW,325,7.0,12.0,80,0.00,,,0.00,weatherlink.com 1.10,2013-03-27 23:33:00,
2013-03-27 19:48:00,36.6,31.0,30.16,NNW,330,8.0,13.0,80,0.00,,,0.00,weatherlink.com 1.10,2013-03-27 23:48:00,
2013-03-27 20:03:00,36.5,31.0,30.16,NW,322,6.0,14.0,80,0.00,,,0.00,weatherlink.com 1.10,2013-03-28 00:03:00,
2013-03-27 20:18:00,35.8,31.0,30.16,NW,319,8.0,12.0,82,0.00,,,0.00,weatherlink.com 1.10,2013-03-28 00:18:00,
2013-03-27 20:33:00,36.0,30.0,30.16,NNW,328,9.0,16.0,80,0.00,,,0.00,weatherlink.com 1.10,2013-03-28 00:33:00,
2013-03-27 20:48:00,35.8,31.0,30.17,NW,321,9.0,13.0,81,0.00,,,0.00,weatherlink.com 1.10,2013-03-28 00:48:00,
2013-03-27 21:03:00,35.4,31.0,30.17,NW,325,8.0,13.0,83,0.00,,,0.00,weatherlink.com 1.10,2013-03-28 01:03:00,
2013-03-27 21:18:00,35.1,30.0,30.17,NNW,333,7.0,13.0,83,0.00,,,0.00,weatherlink.com 1.10,2013-03-28 01:18:00,
2013-03-27 21:33:00,35.0,31.0,30.18,North,349,8.0,14.0,84,0.00,,,0.00,weatherlink.com 1.10,2013-03-28 01:33:00,
2013-03-27 21:48:00,34.7,30.0,30.18,NNW,348,10.0,16.0,84,0.00,,,0.00,weatherlink.com 1.10,2013-03-28 01:48:00,
2013-03-27 22:03:00,34.4,30.0,30.18,NNW,332,8.0,12.0,85,0.00,,,0.00,weatherlink.com 1.10,2013-03-28 02:03:00,
2013-03-27 22:18:00,34.3,31.0,30.18,NNW,339,6.0,11.0,86,0.00,,,0.00,weatherlink.com 1.10,2013-03-28 02:18:00,
2013-03-27 22:33:00,34.0,31.0,30.18,NNW,346,9.0,11.0,87,0.00,,,0.00,weatherlink.com 1.10,2013-03-28 02:33:00,
2013-03-27 22:48:00,34.1,30.0,30.18,NNE,13,10.0,15.0,86,0.00,,,0.00,weatherlink.com 1.10,2013-03-28 02:48:00,
2013-03-27 23:03:00,34.1,30.0,30.18,NNW,332,6.0,11.0,86,0.00,,,0.00,weatherlink.com 1.10,2013-03-28 03:03:00,
2013-03-27 23:18:00,33.7,30.0,30.18,NNW,338,5.0,9.0,87,0.00,,,0.00,weatherlink.com 1.10,2013-03-28 03:18:00,
2013-03-27 23:33:00,33.7,30.0,30.18,NNW,331,8.0,9.0,86,0.00,,,0.00,weatherlink.com 1.10,2013-03-28 03:33:00,
2013-03-27 23:48:00,33.7,30.0,30.18,NNW,336,7.0,11.0,85,0.00,,,0.00,weatherlink.com 1.10,2013-03-28 03:48:00,